Observation data for Dimmitt on 07/18/2019      Previous  Date  Next       Current Mesonet Observations  Soil Data  Daily Summary Page  Observations in Plain Language
KDMS 180500Z 17013KT 27/14 A30 RMK A01 T02670139  RH  047%=      5-min Rain = 0
KDMS 180505Z 16013KT 27/14 A30 RMK A01 T02650139  RH  048%=      5-min Rain = 0
KDMS 180510Z 16011KT 26/14 A30 RMK A01 T02630138  RH  048%=      5-min Rain = 0
KDMS 180515Z 17011KT 26/14 A30 RMK A01 T02610138  RH  048%=      5-min Rain = 0
KDMS 180520Z 16010KT 26/14 A30 RMK A01 T02590137  RH  049%=      5-min Rain = 0
KDMS 180525Z 16010KT 26/14 A30 RMK A01 T02570136  RH  049%=      5-min Rain = 0
KDMS 180530Z 16010KT 26/14 A30 RMK A01 T02560135  RH  049%=      5-min Rain = 0
KDMS 180535Z 16010KT 25/14 A30 RMK A01 T02540135  RH  050%=      5-min Rain = 0
KDMS 180540Z 16010KT 25/14 A30 RMK A01 T02530135  RH  050%=      5-min Rain = 0
KDMS 180545Z 16009KT 25/14 A30 RMK A01 T02510136  RH  051%=      5-min Rain = 0
KDMS 180550Z 17009KT 25/14 A30 RMK A01 T02490136  RH  052%=      5-min Rain = 0
KDMS 180555Z 17009KT 25/14 A30 RMK A01 T02470137  RH  052%=      5-min Rain = 0
KDMS 180600Z 17010KT 25/14 A30 RMK A01 T02460139  RH  053%=      5-min Rain = 0
KDMS 180605Z 17010KT 25/14 A30 RMK A01 T02460140  RH  054%=      5-min Rain = 0
KDMS 180610Z 16010KT 25/14 A30 RMK A01 T02450141  RH  055%=      5-min Rain = 0
KDMS 180615Z 17009KT 24/14 A30 RMK A01 T02440142  RH  055%=      5-min Rain = 0
KDMS 180620Z 17009KT 24/14 A3001 RMK A01 T02430143  RH  056%=      5-min Rain = 0
KDMS 180625Z 17010KT 24/14 A30 RMK A01 T02420144  RH  057%=      5-min Rain = 0
KDMS 180630Z 16011KT 24/15 A30 RMK A01 T02420145  RH  057%=      5-min Rain = 0
KDMS 180635Z 17011KT 24/15 A3001 RMK A01 T02410147  RH  058%=      5-min Rain = 0
KDMS 180640Z 17010KT 24/15 A3001 RMK A01 T02410147  RH  058%=      5-min Rain = 0
KDMS 180645Z 18011KT 24/15 A3001 RMK A01 T02410148  RH  059%=      5-min Rain = 0
KDMS 180650Z 18010KT 24/15 A3001 RMK A01 T02390148  RH  059%=      5-min Rain = 0
KDMS 180655Z 18010KT 24/15 A3002 RMK A01 T02370148  RH  060%=      5-min Rain = 0
KDMS 180700Z 18012KT 24/15 A3002 RMK A01 T02360150  RH  061%=      5-min Rain = 0
KDMS 180705Z 18014KT 24/15 A3001 RMK A01 T02390152  RH  061%=      5-min Rain = 0
KDMS 180710Z 18013KT 24/15 A3001 RMK A01 T02410152  RH  060%=      5-min Rain = 0
KDMS 180715Z 19015KT 24/15 A3001 RMK A01 T02410153  RH  060%=      5-min Rain = 0
KDMS 180720Z 19016KT 24/15 A3001 RMK A01 T02430152  RH  060%=      5-min Rain = 0
KDMS 180725Z 19017G22KT 24/15 A30 RMK A01 T02440150  RH  058%=      5-min Rain = 0
KDMS 180730Z 19018G24KT 25/15 A30 RMK A01 T02450149  RH  057%=      5-min Rain = 0
KDMS 180735Z 19016G21KT 24/15 A30 RMK A01 T02440149  RH  058%=      5-min Rain = 0
KDMS 180740Z 20016KT 24/15 A30 RMK A01 T02430149  RH  058%=      5-min Rain = 0
KDMS 180745Z 20016KT 24/15 A3001 RMK A01 T02420149  RH  059%=      5-min Rain = 0
KDMS 180750Z 19014KT 24/15 A3001 RMK A01 T02400149  RH  059%=      5-min Rain = 0
KDMS 180755Z 20014KT 24/15 A3001 RMK A01 T02390148  RH  060%=      5-min Rain = 0
KDMS 180800Z 20012KT 24/15 A3001 RMK A01 T02380148  RH  060%=      5-min Rain = 0
KDMS 180805Z 20013KT 24/15 A3001 RMK A01 T02390149  RH  060%=      5-min Rain = 0
KDMS 180810Z 20014KT 24/15 A3001 RMK A01 T02370148  RH  060%=      5-min Rain = 0
KDMS 180815Z 20014G19KT 24/15 A3001 RMK A01 T02360148  RH  060%=      5-min Rain = 0
KDMS 180820Z 19014KT 24/15 A30 RMK A01 T02350148  RH  061%=      5-min Rain = 0
KDMS 180825Z 19013KT 23/15 A30 RMK A01 T02330148  RH  061%=      5-min Rain = 0
KDMS 180830Z 19014KT 23/15 A30 RMK A01 T02330148  RH  062%=      5-min Rain = 0
KDMS 180835Z 19015KT 23/15 A30 RMK A01 T02320149  RH  062%=      5-min Rain = 0
KDMS 180840Z 19014KT 23/15 A30 RMK A01 T02310149  RH  063%=      5-min Rain = 0
KDMS 180845Z 19015KT 23/15 A30 RMK A01 T02300149  RH  063%=      5-min Rain = 0
KDMS 180850Z 19014KT 23/15 A2999 RMK A01 T02280149  RH  064%=      5-min Rain = 0
KDMS 180855Z 19016KT 23/15 A2999 RMK A01 T02270149  RH  064%=      5-min Rain = 0
KDMS 180900Z 19014KT 23/15 A2999 RMK A01 T02270149  RH  064%=      5-min Rain = 0
KDMS 180905Z 20015G20KT 23/15 A2999 RMK A01 T02270149  RH  064%=      5-min Rain = 0
KDMS 180910Z 19015KT 23/15 A2999 RMK A01 T02270149  RH  064%=      5-min Rain = 0
KDMS 180915Z 19015KT 23/15 A2999 RMK A01 T02260149  RH  064%=      5-min Rain = 0
KDMS 180920Z 20014G19KT 23/15 A2999 RMK A01 T02260149  RH  065%=      5-min Rain = 0
KDMS 180925Z 19014KT 23/15 A2999 RMK A01 T02250149  RH  065%=      5-min Rain = 0
KDMS 180930Z 19013KT 23/15 A2999 RMK A01 T02250150  RH  065%=      5-min Rain = 0
KDMS 180935Z 20013KT 22/15 A30 RMK A01 T02240150  RH  066%=      5-min Rain = 0
KDMS 180940Z 19014KT 22/15 A2999 RMK A01 T02240150  RH  066%=      5-min Rain = 0
KDMS 180945Z 19014KT 22/15 A2999 RMK A01 T02240150  RH  066%=      5-min Rain = 0
KDMS 180950Z 19012KT 22/15 A30 RMK A01 T02240150  RH  066%=      5-min Rain = 0
KDMS 180955Z 19013KT 22/15 A30 RMK A01 T02220151  RH  067%=      5-min Rain = 0
KDMS 181000Z 19013KT 22/15 A2999 RMK A01 T02230151  RH  067%=      5-min Rain = 0
KDMS 181005Z 19013KT 22/15 A2999 RMK A01 T02210151  RH  067%=      5-min Rain = 0
KDMS 181010Z 18012KT 22/15 A2999 RMK A01 T02200152  RH  068%=      5-min Rain = 0
KDMS 181015Z 18012KT 22/15 A30 RMK A01 T02180152  RH  069%=      5-min Rain = 0
KDMS 181020Z 18012KT 22/15 A30 RMK A01 T02160152  RH  070%=      5-min Rain = 0
KDMS 181025Z 18012KT 22/15 A30 RMK A01 T02150151  RH  070%=      5-min Rain = 0
KDMS 181030Z 18012KT 22/15 A30 RMK A01 T02150151  RH  070%=      5-min Rain = 0
KDMS 181035Z 18011KT 21/15 A30 RMK A01 T02140151  RH  070%=      5-min Rain = 0
KDMS 181040Z 18012KT 21/15 A30 RMK A01 T02130151  RH  071%=      5-min Rain = 0
KDMS 181045Z 18012KT 21/15 A30 RMK A01 T02130151  RH  071%=      5-min Rain = 0
KDMS 181050Z 18011KT 21/15 A30 RMK A01 T02110151  RH  072%=      5-min Rain = 0
KDMS 181055Z 18011KT 21/15 A30 RMK A01 T02100152  RH  072%=      5-min Rain = 0
KDMS 181100Z 17011KT 21/15 A30 RMK A01 T02100152  RH  073%=      5-min Rain = 0
KDMS 181105Z 18011KT 21/15 A30 RMK A01 T02100153  RH  074%=      5-min Rain = 0
KDMS 181110Z 18012KT 21/15 A30 RMK A01 T02090154  RH  074%=      5-min Rain = 0
KDMS 181115Z 18012KT 21/16 A30 RMK A01 T02090155  RH  074%=      5-min Rain = 0
KDMS 181120Z 18012KT 21/16 A30 RMK A01 T02090155  RH  075%=      5-min Rain = 0
KDMS 181125Z 18012KT 21/16 A30 RMK A01 T02080155  RH  075%=      5-min Rain = 0
KDMS 181130Z 18013KT 21/16 A30 RMK A01 T02080156  RH  075%=      5-min Rain = 0
KDMS 181135Z 18013KT 21/16 A30 RMK A01 T02090157  RH  075%=      5-min Rain = 0
KDMS 181140Z 17014KT 21/16 A2999 RMK A01 T02090157  RH  076%=      5-min Rain = 0
KDMS 181145Z 17014KT 21/16 A2999 RMK A01 T02100158  RH  076%=      5-min Rain = 0
KDMS 181200Z 17013KT 21/16 A30 RMK A01 T02090159  RH  076%=      5-min Rain = 0
KDMS 181205Z 17013KT 21/16 A2999 RMK A01 T02090159  RH  077%=      5-min Rain = 0
KDMS 181210Z 17014KT 21/16 A2999 RMK A01 T02090159  RH  077%=      5-min Rain = 0
KDMS 181215Z 17013KT 21/16 A2999 RMK A01 T02100159  RH  077%=      5-min Rain = 0
KDMS 181220Z 17014KT 21/16 A2999 RMK A01 T02100159  RH  076%=      5-min Rain = 0
KDMS 181225Z 17015KT 21/16 A2999 RMK A01 T02110159  RH  076%=      5-min Rain = 0
KDMS 181230Z 17013KT 21/16 A2999 RMK A01 T02120159  RH  075%=      5-min Rain = 0
KDMS 181235Z 17014KT 21/16 A2999 RMK A01 T02140160  RH  075%=      5-min Rain = 0
KDMS 181240Z 17013KT 22/16 A30 RMK A01 T02160160  RH  074%=      5-min Rain = 0
KDMS 181245Z 17015KT 22/16 A30 RMK A01 T02170160  RH  073%=      5-min Rain = 0
KDMS 181250Z 18015KT 22/16 A30 RMK A01 T02190160  RH  073%=      5-min Rain = 0
KDMS 181255Z 18015KT 22/16 A30 RMK A01 T02200160  RH  072%=      5-min Rain = 0
KDMS 181300Z 19015KT 22/16 A30 RMK A01 T02230160  RH  071%=      5-min Rain = 0
KDMS 181305Z 19015KT 22/16 A30 RMK A01 T02240160  RH  070%=      5-min Rain = 0
KDMS 181310Z 19015KT 23/16 A30 RMK A01 T02260160  RH  070%=      5-min Rain = 0
KDMS 181315Z 19015KT 23/16 A30 RMK A01 T02280160  RH  069%=      5-min Rain = 0
KDMS 181320Z 19016G21KT 23/16 A30 RMK A01 T02300160  RH  068%=      5-min Rain = 0
KDMS 181325Z 19016G22KT 23/16 A30 RMK A01 T02320160  RH  067%=      5-min Rain = 0
KDMS 181330Z 18017KT 23/16 A30 RMK A01 T02340160  RH  066%=      5-min Rain = 0
KDMS 181335Z 18017G22KT 24/16 A30 RMK A01 T02370160  RH  065%=      5-min Rain = 0
KDMS 181340Z 19019KT 24/16 A30 RMK A01 T02390160  RH  064%=      5-min Rain = 0
KDMS 181345Z 19019KT 24/16 A30 RMK A01 T02380159  RH  064%=      5-min Rain = 0
KDMS 181350Z 18018G23KT 24/16 A30 RMK A01 T02400159  RH  063%=      5-min Rain = 0
KDMS 181355Z 18019G24KT 24/16 A30 RMK A01 T02420158  RH  062%=      5-min Rain = 0
KDMS 181400Z 18018KT 25/16 A30 RMK A01 T02450159  RH  062%=      5-min Rain = 0
KDMS 181405Z 18019KT 25/16 A30 RMK A01 T02470159  RH  061%=      5-min Rain = 0
KDMS 181410Z 19018KT 25/16 A30 RMK A01 T02500159  RH  060%=      5-min Rain = 0
KDMS 181415Z 18019KT 25/16 A30 RMK A01 T02510157  RH  059%=      5-min Rain = 0
KDMS 181420Z 18017G22KT 26/16 A30 RMK A01 T02550157  RH  057%=      5-min Rain = 0
KDMS 181425Z 19018G23KT 26/16 A30 RMK A01 T02570155  RH  056%=      5-min Rain = 0
KDMS 181430Z 20018KT 26/15 A30 RMK A01 T02600153  RH  054%=      5-min Rain = 0
KDMS 181435Z 20018KT 26/15 A3001 RMK A01 T02600151  RH  053%=      5-min Rain = 0
KDMS 181440Z 20017G22KT 26/15 A30 RMK A01 T02610152  RH  054%=      5-min Rain = 0
KDMS 181445Z 20019KT 26/15 A30 RMK A01 T02620152  RH  053%=      5-min Rain = 0
KDMS 181450Z 20016G21KT 27/15 A30 RMK A01 T02650153  RH  053%=      5-min Rain = 0
KDMS 181455Z 20017G24KT 27/15 A30 RMK A01 T02680154  RH  052%=      5-min Rain = 0
KDMS 181500Z 20017KT 27/15 A30 RMK A01 T02670154  RH  052%=      5-min Rain = 0
KDMS 181505Z 21016KT 27/15 A30 RMK A01 T02700154  RH  052%=      5-min Rain = 0
KDMS 181510Z 20016G21KT 27/15 A30 RMK A01 T02700154  RH  051%=      5-min Rain = 0
KDMS 181515Z 20014KT 28/16 A30 RMK A01 T02760157  RH  051%=      5-min Rain = 0
KDMS 181520Z 21015G20KT 28/16 A30 RMK A01 T02770155  RH  050%=      5-min Rain = 0
KDMS 181525Z 19013KT 28/16 A2999 RMK A01 T02780157  RH  050%=      5-min Rain = 0
KDMS 181530Z 20014KT 28/16 A2999 RMK A01 T02830156  RH  048%=      5-min Rain = 0
KDMS 181535Z 20015G20KT 28/15 A2999 RMK A01 T02840154  RH  047%=      5-min Rain = 0
KDMS 181540Z 21014KT 29/15 A2999 RMK A01 T02860153  RH  046%=      5-min Rain = 0
KDMS 181545Z 20015KT 29/15 A2999 RMK A01 T02890153  RH  046%=      5-min Rain = 0
KDMS 181550Z 20014G19KT 29/15 A2999 RMK A01 T02900152  RH  045%=      5-min Rain = 0
KDMS 181555Z 21014G19KT 30/15 A2999 RMK A01 T02970152  RH  043%=      5-min Rain = 0
KDMS 181600Z 20013KT 30/15 A2999 RMK A01 T02960153  RH  044%=      5-min Rain = 0
KDMS 181605Z 21014G20KT 30/15 A2999 RMK A01 T02980151  RH  043%=      5-min Rain = 0
KDMS 181610Z 19015KT 30/15 A2999 RMK A01 T02990150  RH  042%=      5-min Rain = 0
KDMS 181615Z 20013G18KT 31/15 A2999 RMK A01 T03060150  RH  041%=      5-min Rain = 0
KDMS 181620Z 20014KT 30/15 A2999 RMK A01 T03040149  RH  041%=      5-min Rain = 0
KDMS 181625Z 20013KT 30/15 A2999 RMK A01 T03040150  RH  041%=      5-min Rain = 0
KDMS 181630Z 20014KT 31/15 A2999 RMK A01 T03050149  RH  041%=      5-min Rain = 0
KDMS 181635Z 21014KT 31/15 A2999 RMK A01 T03100148  RH  039%=      5-min Rain = 0
KDMS 181640Z 20014KT 31/15 A2999 RMK A01 T03080147  RH  039%=      5-min Rain = 0
KDMS 181645Z 20014KT 31/15 A2999 RMK A01 T03130147  RH  038%=      5-min Rain = 0
KDMS 181650Z 19014KT 31/15 A2999 RMK A01 T03140148  RH  038%=      5-min Rain = 0
KDMS 181655Z 20013G18KT 32/15 A2999 RMK A01 T03150150  RH  038%=      5-min Rain = 0
KDMS 181700Z 19013G18KT 32/15 A2999 RMK A01 T03240149  RH  036%=      5-min Rain = 0
KDMS 181705Z 19015KT 32/15 A2998 RMK A01 T03240149  RH  036%=      5-min Rain = 0
KDMS 181710Z 20014G19KT 32/15 A2998 RMK A01 T03240149  RH  036%=      5-min Rain = 0
KDMS 181715Z 18014G19KT 33/15 A2998 RMK A01 T03260148  RH  036%=      5-min Rain = 0
KDMS 181720Z 18016KT 33/15 A2998 RMK A01 T03290148  RH  035%=      5-min Rain = 0
KDMS 181725Z 19016G21KT 33/15 A2998 RMK A01 T03280145  RH  035%=      5-min Rain = 0
KDMS 181730Z 20016KT 33/14 A2998 RMK A01 T03320142  RH  033%=      5-min Rain = 0
KDMS 181735Z 20015KT 33/14 A2998 RMK A01 T03320139  RH  032%=      5-min Rain = 0
KDMS 181740Z 19015KT 33/14 A2998 RMK A01 T03330142  RH  033%=      5-min Rain = 0
KDMS 181745Z 19014KT 34/14 A2998 RMK A01 T03360141  RH  032%=      5-min Rain = 0
KDMS 181750Z 19016KT 34/14 A2997 RMK A01 T03370141  RH  032%=      5-min Rain = 0
KDMS 181755Z 18014KT 34/14 A2997 RMK A01 T03390142  RH  032%=      5-min Rain = 0
KDMS 181800Z 20015G20KT 34/14 A2997 RMK A01 T03390142  RH  032%=      5-min Rain = 0
KDMS 181805Z 19013G19KT 34/14 A2997 RMK A01 T03430143  RH  031%=      5-min Rain = 0
KDMS 181810Z 18014G19KT 35/14 A2997 RMK A01 T03460142  RH  031%=      5-min Rain = 0
KDMS 181815Z 17014G20KT 35/14 A2997 RMK A01 T03480141  RH  030%=      5-min Rain = 0
KDMS 181820Z 20015G20KT 35/14 A2997 RMK A01 T03460141  RH  030%=      5-min Rain = 0
KDMS 181825Z 19015G21KT 35/14 A2996 RMK A01 T03470142  RH  031%=      5-min Rain = 0
KDMS 181830Z 19013G20KT 35/14 A2996 RMK A01 T03480142  RH  030%=      5-min Rain = 0
KDMS 181835Z 17015KT 35/14 A2996 RMK A01 T03530139  RH  029%=      5-min Rain = 0
KDMS 181840Z 18015G20KT 35/14 A2996 RMK A01 T03520140  RH  029%=      5-min Rain = 0
KDMS 181845Z 18015G20KT 36/14 A2996 RMK A01 T03550140  RH  029%=      5-min Rain = 0
KDMS 181850Z 17017G24KT 36/14 A2995 RMK A01 T03560138  RH  028%=      5-min Rain = 0
KDMS 181855Z 17015G22KT 35/14 A2995 RMK A01 T03540138  RH  028%=      5-min Rain = 0
KDMS 181900Z 18016G21KT 36/14 A2995 RMK A01 T03570135  RH  028%=      5-min Rain = 0
KDMS 181905Z 18015G22KT 36/14 A2995 RMK A01 T03580139  RH  028%=      5-min Rain = 0
KDMS 181910Z 18015G22KT 36/13 A2995 RMK A01 T03600134  RH  027%=      5-min Rain = 0
KDMS 181915Z 18017G22KT 36/13 A2995 RMK A01 T03570133  RH  027%=      5-min Rain = 0
KDMS 181920Z 19015G22KT 36/14 A2995 RMK A01 T03590136  RH  027%=      5-min Rain = 0
KDMS 181925Z 18017KT 36/14 A2995 RMK A01 T03620137  RH  027%=      5-min Rain = 0
KDMS 181930Z 17018KT 36/14 A2995 RMK A01 T03600137  RH  027%=      5-min Rain = 0
KDMS 181935Z 19017KT 36/14 A2994 RMK A01 T03610136  RH  027%=      5-min Rain = 0
KDMS 181940Z 18016G21KT 37/14 A2994 RMK A01 T03650136  RH  026%=      5-min Rain = 0
KDMS 181945Z 17017G23KT 37/13 A2994 RMK A01 T03670134  RH  026%=      5-min Rain = 0
KDMS 181950Z 17019KT 37/13 A2994 RMK A01 T03670131  RH  025%=      5-min Rain = 0
KDMS 181955Z 18016G22KT 37/13 A2994 RMK A01 T03680134  RH  026%=      5-min Rain = 0
KDMS 182000Z 18017KT 37/13 A2994 RMK A01 T03700130  RH  025%=      5-min Rain = 0
KDMS 182005Z 18018KT 37/13 A2993 RMK A01 T03690130  RH  025%=      5-min Rain = 0
KDMS 182010Z 18017G24KT 37/13 A2993 RMK A01 T03700131  RH  025%=      5-min Rain = 0
KDMS 182015Z 18018G24KT 37/13 A2993 RMK A01 T03680129  RH  025%=      5-min Rain = 0
KDMS 182020Z 17018KT 37/13 A2993 RMK A01 T03720128  RH  024%=      5-min Rain = 0
KDMS 182025Z 19017G23KT 38/13 A2993 RMK A01 T03770129  RH  024%=      5-min Rain = 0
KDMS 182030Z 18016G26KT 38/13 A2993 RMK A01 T03770132  RH  024%=      5-min Rain = 0
KDMS 182035Z 17018G26KT 37/13 A2992 RMK A01 T03730132  RH  025%=      5-min Rain = 0
KDMS 182040Z 17017KT 38/13 A2993 RMK A01 T03760131  RH  024%=      5-min Rain = 0
KDMS 182045Z 19016G26KT 38/13 A2992 RMK A01 T03790128  RH  023%=      5-min Rain = 0
KDMS 182050Z 18016G25KT 38/13 A2992 RMK A01 T03770129  RH  024%=      5-min Rain = 0
KDMS 182055Z 18019G25KT 38/13 A2992 RMK A01 T03770125  RH  023%=      5-min Rain = 0
KDMS 182100Z 18016G21KT 38/13 A2992 RMK A01 T03760127  RH  024%=      5-min Rain = 0
KDMS 182105Z 18020G25KT 38/12 A2992 RMK A01 T03820123  RH  022%=      5-min Rain = 0
KDMS 182110Z 18018G23KT 38/12 A2992 RMK A01 T03800119  RH  022%=      5-min Rain = 0
KDMS 182115Z 18017G23KT 38/13 A2991 RMK A01 T03820125  RH  022%=      5-min Rain = 0
KDMS 182120Z 18016G24KT 38/13 A2991 RMK A01 T03810125  RH  023%=      5-min Rain = 0
KDMS 182125Z 18017G23KT 38/12 A2991 RMK A01 T03770123  RH  023%=      5-min Rain = 0
KDMS 182130Z 18018G26KT 38/13 A2991 RMK A01 T03820125  RH  022%=      5-min Rain = 0
KDMS 182135Z 18019G25KT 38/12 A299 RMK A01 T03800116  RH  021%=      5-min Rain = 0
KDMS 182140Z 19017G22KT 38/12 A299 RMK A01 T03800119  RH  022%=      5-min Rain = 0
KDMS 182145Z 18017G22KT 38/12 A299 RMK A01 T03820120  RH  022%=      5-min Rain = 0
KDMS 182150Z 18018G24KT 39/12 A299 RMK A01 T03850121  RH  022%=      5-min Rain = 0
KDMS 182155Z 18019G25KT 39/12 A299 RMK A01 T03860120  RH  021%=      5-min Rain = 0
KDMS 182200Z 18019G26KT 39/12 A2989 RMK A01 T03880120  RH  021%=      5-min Rain = 0
KDMS 182205Z 19018KT 38/12 A2989 RMK A01 T03840115  RH  021%=      5-min Rain = 0
KDMS 182210Z 18019G24KT 38/12 A2989 RMK A01 T03840117  RH  021%=      5-min Rain = 0
KDMS 182215Z 20019G25KT 39/11 A2989 RMK A01 T03870111  RH  020%=      5-min Rain = 0
KDMS 182220Z 19018G24KT 39/11 A2989 RMK A01 T03850113  RH  020%=      5-min Rain = 0
KDMS 182225Z 19020G25KT 38/11 A2989 RMK A01 T03840114  RH  021%=      5-min Rain = 0
KDMS 182230Z 19017G23KT 38/11 A2988 RMK A01 T03840111  RH  020%=      5-min Rain = 0
KDMS 182235Z 18019G27KT 39/12 A2988 RMK A01 T03860116  RH  021%=      5-min Rain = 0
KDMS 182240Z 18021G26KT 38/12 A2988 RMK A01 T03840116  RH  021%=      5-min Rain = 0
KDMS 182245Z 18020G26KT 38/12 A2988 RMK A01 T03840119  RH  021%=      5-min Rain = 0
KDMS 182250Z 17020KT 38/12 A2988 RMK A01 T03820120  RH  022%=      5-min Rain = 0
KDMS 182255Z 18018G24KT 39/11 A2988 RMK A01 T03860113  RH  020%=      5-min Rain = 0
KDMS 182300Z 19018KT 38/11 A2988 RMK A01 T03840111  RH  020%=      5-min Rain = 0
KDMS 182305Z 18018G24KT 38/12 A2988 RMK A01 T03840118  RH  021%=      5-min Rain = 0
KDMS 182310Z 18019G25KT 38/12 A2987 RMK A01 T03830121  RH  022%=      5-min Rain = 0
KDMS 182315Z 18020G25KT 38/12 A2987 RMK A01 T03790120  RH  022%=      5-min Rain = 0
KDMS 182320Z 18017KT 38/12 A2987 RMK A01 T03810122  RH  022%=      5-min Rain = 0
KDMS 182325Z 18022G27KT 38/12 A2987 RMK A01 T03780122  RH  023%=      5-min Rain = 0
KDMS 182330Z 17020KT 38/12 A2987 RMK A01 T03760119  RH  022%=      5-min Rain = 0
KDMS 182335Z 18019G24KT 38/12 A2987 RMK A01 T03780120  RH  022%=      5-min Rain = 0
KDMS 182340Z 18019KT 38/12 A2987 RMK A01 T03780120  RH  022%=      5-min Rain = 0
KDMS 182345Z 17021G26KT 38/12 A2987 RMK A01 T03760120  RH  022%=      5-min Rain = 0
KDMS 182350Z 18020KT 37/12 A2987 RMK A01 T03730122  RH  023%=      5-min Rain = 0
KDMS 182355Z 18017G23KT 38/13 A2987 RMK A01 T03760125  RH  023%=      5-min Rain = 0
KDMS 190000Z 18019G24KT 38/12 A2987 RMK A01 T03750121  RH  023%=      5-min Rain = 0
KDMS 190005Z 18020KT 37/12 A2987 RMK A01 T03720122  RH  023%=      5-min Rain = 0
KDMS 190010Z 18018G24KT 37/12 A2987 RMK A01 T03720122  RH  023%=      5-min Rain = 0
KDMS 190015Z 17018KT 37/13 A2987 RMK A01 T03710126  RH  024%=      5-min Rain = 0
KDMS 190020Z 17018KT 37/13 A2987 RMK A01 T03700126  RH  024%=      5-min Rain = 0
KDMS 190025Z 18019G24KT 37/13 A2987 RMK A01 T03670126  RH  024%=      5-min Rain = 0
KDMS 190030Z 17019G24KT 37/13 A2987 RMK A01 T03660126  RH  025%=      5-min Rain = 0
KDMS 190035Z 17018G23KT 36/13 A2987 RMK A01 T03640126  RH  025%=      5-min Rain = 0
KDMS 190040Z 17020KT 36/13 A2987 RMK A01 T03610127  RH  025%=      5-min Rain = 0
KDMS 190045Z 17019G24KT 36/13 A2987 RMK A01 T03590128  RH  026%=      5-min Rain = 0
KDMS 190050Z 18018KT 36/13 A2987 RMK A01 T03570129  RH  026%=      5-min Rain = 0
KDMS 190055Z 17017KT 36/13 A2987 RMK A01 T03560129  RH  027%=      5-min Rain = 0
KDMS 190100Z 17018G23KT 35/13 A2987 RMK A01 T03530129  RH  027%=      5-min Rain = 0
KDMS 190105Z 17017KT 35/13 A2987 RMK A01 T03510129  RH  027%=      5-min Rain = 0
KDMS 190110Z 17016KT 35/13 A2988 RMK A01 T03490130  RH  028%=      5-min Rain = 0
KDMS 190115Z 18017G22KT 35/13 A2988 RMK A01 T03460130  RH  028%=      5-min Rain = 0
KDMS 190120Z 18016KT 34/13 A2988 RMK A01 T03430129  RH  029%=      5-min Rain = 0
KDMS 190125Z 17016G21KT 34/13 A2988 RMK A01 T03410129  RH  029%=      5-min Rain = 0
KDMS 190130Z 17016KT 34/13 A2988 RMK A01 T03390130  RH  029%=      5-min Rain = 0
KDMS 190135Z 17017KT 34/13 A2988 RMK A01 T03370128  RH  029%=      5-min Rain = 0
KDMS 190140Z 17017KT 33/13 A2988 RMK A01 T03340128  RH  030%=      5-min Rain = 0
KDMS 190145Z 17015G20KT 33/13 A2988 RMK A01 T03310128  RH  030%=      5-min Rain = 0
KDMS 190150Z 17015KT 33/13 A2989 RMK A01 T03270128  RH  031%=      5-min Rain = 0
KDMS 190155Z 17016KT 33/13 A2989 RMK A01 T03250129  RH  032%=      5-min Rain = 0
KDMS 190200Z 17015KT 32/13 A2989 RMK A01 T03220130  RH  032%=      5-min Rain = 0
KDMS 190205Z 17013KT 32/13 A2989 RMK A01 T03190130  RH  033%=      5-min Rain = 0
KDMS 190210Z 17014KT 32/13 A2989 RMK A01 T03160132  RH  034%=      5-min Rain = 0
KDMS 190215Z 17014G19KT 31/13 A2989 RMK A01 T03140132  RH  034%=      5-min Rain = 0
KDMS 190220Z 17013KT 31/13 A2989 RMK A01 T03110133  RH  035%=      5-min Rain = 0
KDMS 190225Z 17013G18KT 31/13 A299 RMK A01 T03090133  RH  036%=      5-min Rain = 0
KDMS 190230Z 17014KT 31/13 A299 RMK A01 T03090133  RH  036%=      5-min Rain = 0
KDMS 190235Z 17014KT 31/13 A299 RMK A01 T03070133  RH  036%=      5-min Rain = 0
KDMS 190240Z 17014KT 31/13 A299 RMK A01 T03060133  RH  036%=      5-min Rain = 0
KDMS 190245Z 17014KT 30/13 A299 RMK A01 T03040133  RH  037%=      5-min Rain = 0
KDMS 190250Z 17013KT 30/13 A299 RMK A01 T03020133  RH  037%=      5-min Rain = 0
KDMS 190255Z 17013KT 30/13 A299 RMK A01 T03010133  RH  037%=      5-min Rain = 0
KDMS 190300Z 17012KT 30/13 A2991 RMK A01 T02980132  RH  038%=      5-min Rain = 0
KDMS 190305Z 17013KT 30/13 A2991 RMK A01 T02960133  RH  038%=      5-min Rain = 0
KDMS 190310Z 17013KT 29/13 A2991 RMK A01 T02940133  RH  039%=      5-min Rain = 0
KDMS 190315Z 17013KT 29/13 A2991 RMK A01 T02920133  RH  039%=      5-min Rain = 0
KDMS 190320Z 17013KT 29/13 A2991 RMK A01 T02910133  RH  039%=      5-min Rain = 0
KDMS 190325Z 17014KT 29/13 A2991 RMK A01 T02910133  RH  039%=      5-min Rain = 0
KDMS 190330Z 17014KT 29/13 A2992 RMK A01 T02900133  RH  040%=      5-min Rain = 0
KDMS 190335Z 17013KT 29/13 A2992 RMK A01 T02880133  RH  040%=      5-min Rain = 0
KDMS 190340Z 17012KT 29/13 A2992 RMK A01 T02860132  RH  040%=      5-min Rain = 0
KDMS 190345Z 17012KT 28/13 A2993 RMK A01 T02840132  RH  041%=      5-min Rain = 0
KDMS 190350Z 17011KT 28/13 A2993 RMK A01 T02820132  RH  041%=      5-min Rain = 0
KDMS 190355Z 17012KT 28/13 A2993 RMK A01 T02810133  RH  042%=      5-min Rain = 0
KDMS 190400Z 17011KT 28/13 A2993 RMK A01 T02780132  RH  042%=      5-min Rain = 0
KDMS 190405Z 17011KT 28/13 A2993 RMK A01 T02750133  RH  043%=      5-min Rain = 0
KDMS 190410Z 17011KT 27/13 A2993 RMK A01 T02730133  RH  044%=      5-min Rain = 0
KDMS 190415Z 17011KT 27/13 A2993 RMK A01 T02710133  RH  044%=      5-min Rain = 0
KDMS 190420Z 17011KT 27/13 A2994 RMK A01 T02700133  RH  045%=      5-min Rain = 0
KDMS 190425Z 17012KT 27/13 A2994 RMK A01 T02710134  RH  045%=      5-min Rain = 0
KDMS 190430Z 17012KT 27/14 A2994 RMK A01 T02700135  RH  045%=      5-min Rain = 0
KDMS 190435Z 17012KT 27/14 A2994 RMK A01 T02690135  RH  045%=      5-min Rain = 0
KDMS 190440Z 17012KT 27/14 A2994 RMK A01 T02680135  RH  046%=      5-min Rain = 0
KDMS 190445Z 17012KT 27/13 A2994 RMK A01 T02660134  RH  046%=      5-min Rain = 0
KDMS 190450Z 17012KT 27/13 A2994 RMK A01 T02660134  RH  046%=      5-min Rain = 0
KDMS 190455Z 17013KT 27/14 A2994 RMK A01 T02650135  RH  046%=      5-min Rain = 0

Page generated in 0.009 seconds.